Timeline UpdatesTrip UpdatesNews PostsPvt PostsTravel TipsAdmin PostsConv PostsFollowed PostsChat RequestsBlog PostsPNR Posts

Disclaimer
Search
 
 
Tue Sep 30, 2014 11:26:27 ISTHomeTrainsΣChainsAtlasPNRForumGalleryNewsFAQTripsMembersLoginFeedback
No Recent News for this Train
Other Trains in the News **new
Latest...
.
Sun Nov 03, 2013 (10:46PM)
⇐ Return Journey: Train# 13352

13351/Dhanbad-Alappuzha Express

Time-Table HAS CHANGED.
Sep 13 (11:08AM)
Change Departure Station:
Change Arrival Station:
Post a Train Travel TipPost a Train Travel Tip **new
Post a Comment/Question/Picture/VideoPost a Comment/Question/Picture/Video
Pantry/Catering
✓ Pantry Car Avbl
✓ Catering Avbl
Average
Loco/Rake Reversals
MAS/Chennai Central (11); SRR/Shoranur Junction (7); VSKP/Visakhapatnam Junction (8);
RSA - Rake Sharing
Rake/Coach Composition
LOCO-SLR-GS-S1-S2-S3-S4-S5-; S6-S7-S8-PC-A1-B1-B2*-A2*-ST1*-ST2*-; ST3*-ST4*-ST5*-GS*-SLR*;(DHN-VSKP, MAS-SRR) ; *Tata portion attached at ROU; CC reverses for VSKP-MAS & SRR-ALLP)
Loco
Official Loco DHN - ROU :- WAM-4 ROU - VSKP :- WDM-3A/WDG-3A...
Read more...
(Twins) VSKP - MAS :- WAM-4/WAP-1 MAS - ALLP:- WAM-4/WAP-4
News    PNR    Forum    Time-Table    Availability    Fare Chart    Map    Arr/Dep History    Trips    Gallery    ΣChains    X/O    Timeline    
Travel Time: 49h 35m    84 halts    Distance: 2268 km    Avg Speed: 45 km/hr
Type: Mail/Express
Zone: ECR/East Central
Departs @ 10:50 (Avg on time)
Platform# 5
SMTWTFS
Dhanbad Junction/DHN 
Arrives @ 12:25 +2 nights (Avg 15m late)
Platform# ???
SMTWTFS
Coimbatore Main Junction/CBE 

84 halts. 369 intermediate Stations between Dhanbad Junction and Coimbatore Main Junction

Show ALL intermediate Stations  Show Old Time-Table

#CodeStation NameX/OArrivesAvgDepartsAvgHaltPFDay#KmSpeedElevZoneAddress
1DHNDhanbad Junction (9)»  -10:50+0510.030235mECR2319801. Div. HQ ECR, Jharkhand
2KTHKatrasgarh (1)  11:18+111:20+12m1113.834198mECRKatrasgarh, Jharkhand
3CRPChandrapura Junction (3)X  11:56+011:58+22m1134.335227mECR06549-242555, Jharkhand
4BKSCBokaro Steel City (3)  12:25+212:35+210m2149.871245mSER06542-253861, Jharkhand
5PNWPundhag (3)  12:49+312:50+41m2166.563291mSERDist - Puruliya -723215, West Bengal
6JAAJhalida (3)  13:12+713:13+81m--189.738297mSERJhalida, West Bengal
7MURIMuri Junction (3)X  13:33+513:35+62m21102.548254mSER06522-222444, Jharkhand
8RNCRanchi Junction (6)X  14:50+815:05+715m31162.228632mSERDiv HQ SER, Jharkhand
9HTEHatia (3)  15:20+815:25+85m--1169.278657mSER2788599, Jharkhand
10GBXGovindpur Road (3)  15:58 15:57+1416:00 15:58+142 1m--1210.982577mSERkhunti, Jharkhand
11BANOBano (2)  16:45 16:37+1616:46 16:38+181m--1264.136452mSERDist. Gumla, Jharkhand
12NXNNuagaon  17:49+317:50+61m--1306.252218mSERKeonjhar, Odisha
13BNDMBondamunda (2)  18:14+1918:15+81m--1326.926213mSERRourkela, Odisha
14ROURourkela Junction (5)X  18:30+519:00+1930m21333.464198mSERRourkela, Odisha
15GPRaj Gangpur (3)O  19:28+2419:29+251m11363.269237mSERRaj Ganpur, Odisha
16BMBBamra (3)X  19:59+2220:00+221m--1397.955259mSERBamra PH : 06642-229268, Odisha
17JSGJharsuguda Junction (5)  20:40+1620:50+1410m11434.469236mSERJharsuguda, Odisha
18RGLRengaliO  21:15 21:13+4321:17 21:15+432m--1460.869208mECoRState Highway 10, Odisha
19SBPDSambalpur Road  21:35 21:33+721:37 21:35+72m--1481.59161mECoRSambalpur, Odisha
20SBPSambalpur Junction (3)X  21:45+4521:55+4810m--1483.064159mECoRSambalpur, Odisha
21ATSAttabira  22:18+5222:20+542m--1507.577164mECoRBargarh, Odisha
22BRGABargarh Road (3)XO  22:34+5722:39+1:025m--1525.672185mECoRBargarh, Odisha
23BRPLBarpaliX  22:57 22:55+1:0222:59 22:57+1:092m--1544.865178mECoRBarpali, Odisha
24BLGRBalangir (3)  23:50+1:1223:55+1:175m--1601.847210mECoRBolangir, Odisha
25BUDMBadmal  00:50+1:0200:52+1:022m--2645.223209mECoRDumerbahal Rd, Odisha
26TIGTitlagarh Junction (3)XO  01:45+3101:55+3810m--2665.256212mECoRTitlagarh, Odisha
27KSNGKesinga (1)XO  02:10+3702:12+372m12679.165183mECoRKesinga, Odisha
28RPRDRupra RoadO  02:27+4002:29+402m--2695.344233mECoRKalahandi, Odisha
29NRLRNorla RoadO  02:38+3902:40+392m--2702.060247mECoRKalahandi, Odisha
30AMBAmbodala  03:05+3703:07+372m--2727.039374mECoRState Highway 6, Odisha
31MNGDMunigudaX  03:45+2503:47+272m--2752.041335mECoRMuniguda, Odisha
32THVTherubaliO  04:40+1204:42+142m--2788.031270mECoRRayagada, Odisha
33SPRDSingapuram Road (2)X  05:00+1405:02+202m--2797.315248mECoRJaykaypur, Odisha
34RGDARayagada (3)O  05:40+505:55+915m--2806.673229mECoRRayagada ph.no 06856-222407, Odisha
35PVPTParvatipuram TownXO  06:32-06:34-2m--2851.925121mECoRParvatipuram, Andhra Pradesh
36PVPParvatipuram (3)X  06:38+1606:40+162m--2853.572122mECoRParvatipuram, Andhra Pradesh
37VBLBobbili Junction (2)X  07:00+1607:03+153m22877.449137mECoRBobbili, Andhra Pradesh
38VZMVizianagaram Junction (5)  08:15 08:10+408:20 08:15+115m--2931.78463mECoRVizianagaram, Andhra Pradesh
39KTVKottavalasa Junction (5)X  08:48 08:40+2408:50 08:42+252m--2966.66058mECoRVizianagaram District, Andhra Pradesh
40SCMSimhachalam (2)X  09:17 09:00-09:19 09:02-2m--2984.7927mECoRVisakhapatnam, Andhra Pradesh
41VSKPVisakhapatnam Junction (8)XO10:05 09:55+310:25 10:15+720m32992.83311mECoRVishakhapatnam 530001, Andhra Pradesh
42DVDDuvvada (4)X  10:55 10:45+610:57 10:47+72m121009.24246mECoRVishakhapatnam District, Andhra Pradesh
43AKPAnakapalle (3)  11:10+1011:11+131m221025.27130mSCRAnakapalle ph.no . 08924-221698, Andhra Pradesh
44YLMElamanchili (2)X  11:31+1411:32+161m--21048.97123mSCRVisakhapatnam District, Andhra Pradesh
45NRPNarsipatnam Road (2)  11:47+2211:48+221m--21066.68418mSCRVisakhapatnam District, Andhra Pradesh
46TUNITuni (2)X  12:04+2912:05+321m121088.97124mSCRTuni ph.no. 08854-252172, Andhra Pradesh
47ANVAnnavaram (3)  12:19+3812:20+401m121105.67627mSCREast Godavari District, Andhra Pradesh
48GLPGollaproluX  12:35+4512:36+491m--21124.74919mSCRGollaprollu, Andhra Pradesh
49PAPPithapuram (2)  12:43+5012:44+551m--21130.47222mSCREast Godavari District, Andhra Pradesh
50SLOSamalkot Junction (3)  12:54+1:0112:55+1:021m321142.48418mSCRSamalkot, Andhra Pradesh
51APTAnaparti (3)  13:14+1:0613:15+1:071m--21169.03821mSCREast Godavari District, Andhra Pradesh
52DWPDwarapudi (3)  13:21+1:0613:22+1:071m--21172.72420mSCREast Godavari District, Andhra Pradesh
53RJYRajahmundry (3)  14:11+4214:16+425m121192.63623mSCRRajahmundry ph.no. 0883-2420541, Andhra Pradesh
54KVRKovvur (3)  14:29+4514:30+461m321200.56125mSCRWest Godavari, Andhra Pradesh
55NDDNidadavolu Junction (3)  14:44+5114:45+521m221214.87120mSCRNidadavolu jtn ph.no. 08813-210325, Andhra Pradesh
56TDDTadepalligudem (3)X  15:02+5515:03+561m321234.88718mSCRTadepalligudem, Andhra Pradesh
57EEEluru (3)X  15:36+5915:37+1:001m321282.53319mSCREluru Ph.no. 08812 226401., Andhra Pradesh
58BZAVijayawada Junction (10)X  17:25+3517:45+3620m--21341.96924mSCRVijayawada 520001, Andhra Pradesh
59TELTenali Junction (5)O  18:12+4918:13+511m321373.26616mSCRTel: 08644-227834, Andhra Pradesh
60NDONidubrolu (3)  18:33+5518:34+561m--21395.2659mSCRNidubrolu, Andhra Pradesh
61BPPBapatla (3)X  18:53+1:0018:54+1:001m--21415.87510mSCRBapatla, Andhra Pradesh
62CLXChirala (4)X  19:06+1:0219:07+1:041m--21430.8768mSCRChirala, Andhra Pradesh
63CJMChinnaganjam (3)X  19:23+1:0919:24+1:091m--21451.2369mSCRChinna Ganjam, Andhra Pradesh
64OGLOngole (3)  20:12+5020:13+521m321480.27712mSCROngole, Andhra Pradesh
65SKMSingarayakonda (2)X  20:35+5720:36+581m221508.49126mSCRSingarayakonda, Andhra Pradesh
66KVZKavali (4)X  21:01+821:02+111m221546.27621mSCRKavali, Andhra Pradesh
67BTTRBitragunta (2)X  21:15+2821:16+281m221562.64515mSCRBitragunta, Andhra Pradesh
68NLRNellore (4)X  22:02+1922:03+191m321597.01721mSCRNellore, Andhra Pradesh
69GDRGudur Junction (3)  00:18+000:20+22m131635.46919mSCRGudur, Andhra Pradesh
70NYPNayadupeta (3)  00:44+1000:45+201m231663.16833mSRNayudupeta, Andhra Pradesh
71SPESullurupeta (3)  01:09+2101:10+221m231690.3479mSR524121., Andhra Pradesh
72MASChennai Central (11)↵¶02:55+903:25+1330m531772.8579mSRChennai 600003, Tamil Nadu
73TRLTiruvallur (6)  04:09+1804:10+191m--31814.56550mSRTiruvallur, Tamil Nadu
74AJJArakkonam Junction (8)X  04:35+1904:40+165m--31841.46891mSRArakkonam, Tamil Nadu
75MCNMukundarayapuram (2)  05:19+1705:20+191m--31885.733198mSRSipcot Ranipet, Tamil Nadu
76KPDKatpadi Junction (5)X  05:50+805:55+105m131902.277213mSRVellore 632007, Tamil Nadu
77GYMGudiyattam (3)  06:14+1206:15+131m331926.891269mSRVellore, Tamil Nadu
78VNVaniyambadiXO  06:44+1506:45+161m--31970.628357mSRVaniyambadi, Tamil Nadu
79JTJJolarpettai Junction (5)O  07:18+307:20+62m--31986.143405mSRJolarpettai, Tamil Nadu
80TPTTirupattur (2)  07:30+1307:32+132m--31993.273392mSRTirupattur ph.no. 04179-220062, Tamil Nadu
81SLYSamalpatti  07:50 07:51+1507:52+162 1m--32016.490388mSRSamalpatti ph.no. 04341-245601, Tamil Nadu
82BQIBommidiX  08:23+2008:25+222m--32063.1520mSRBommidi ph.no. 04346-244441, Tamil Nadu
83SASalem Junction (6)XO  09:00 09:15+2309:05 09:20+235m--32106.361283mSRSalem, Tamil Nadu
84EDErode Junction (4)X  10:15 10:20+1810:25 10:30+2810m232167.770175mSRErode ph.no: 0424-2256111, Tamil Nadu
85TUPTiruppur (2)  11:03 11:13+3211:05 11:15+322m132217.943305mSRTiruppur. Ph:0421-2200450, Tamil Nadu
86CBECoimbatore Main Junction (6)•X  12:08 12:25+1512:10 12:30+172 5m--32268.439416mSRCoimbatore 641001, Tamil Nadu
87PGTPalakkad Junction (4)X  13:30 13:55+1713:35 14:00+205m--32323.73684mSRPalghat Tel: 0491 2555231, Kerala
88SRRShoranur Junction (7)14:40 15:15+2615:25+2445 10m532368.34226mSRShoranur ph.no 0466-2222913, Kerala
89TCRThrissur (4)  16:27 16:12+1416:30 16:15+163m132401.2606mSRThrissur Tel: 0487 2423150, Kerala
90AWYAluva (3)XO  17:18 17:10+2017:20 17:12+202m132455.81712mSRPh: 0484-2624141, Kerala
91ERSErnakulam Junction (South) (6)  18:26 18:20+418:30 18:25+84 5m132475.2413mSRErnakulam 682016, Kerala
92TUVRTuravur (2)  19:04 18:59+2519:05 19:00+271m132498.6665mSRThuravoor, Kerala
93SRTLCherthala (3)O  19:19 19:09+2419:20 19:10+251m232508.6737mSRPh: 0478- 2812500, Kerala
94MAKMMararikkulam (1)X  19:25 19:19+3919:45 19:20+3320 1m132519.61312mSRMararikulam, Kerala
95ALLPAlappuzha (3)  20:20+4-332532.8-8mSRPh:0477-2253965, Kerala
Scroll to Top
Scroll to Bottom